createdAt,value
2018-08-16T00:01:46.673Z,15.70
2018-08-16T00:04:16.000Z,15.80
2018-08-16T00:06:45.364Z,15.70
2018-08-16T00:09:14.709Z,15.70
2018-08-16T00:11:44.054Z,15.90
2018-08-16T00:14:13.551Z,16.00
2018-08-16T00:16:42.799Z,15.90
2018-08-16T00:19:12.510Z,15.90
2018-08-16T00:21:42.480Z,15.90
2018-08-16T00:24:12.963Z,16.00
2018-08-16T00:26:42.735Z,15.90
2018-08-16T00:29:13.030Z,15.90
2018-08-16T00:31:42.516Z,15.80
2018-08-16T00:34:11.930Z,15.80
2018-08-16T00:36:41.608Z,15.80
2018-08-16T00:39:11.584Z,15.80
2018-08-16T00:41:41.289Z,15.90
2018-08-16T00:44:10.781Z,15.90
2018-08-16T00:46:40.150Z,16.00
2018-08-16T00:49:09.817Z,16.30
2018-08-16T00:51:39.460Z,16.30
2018-08-16T00:54:08.920Z,16.30
2018-08-16T00:56:38.473Z,16.20
2018-08-16T00:59:07.944Z,16.00
2018-08-16T01:01:37.771Z,15.80
2018-08-16T01:04:07.979Z,15.80
2018-08-16T01:06:37.092Z,15.90
2018-08-16T01:09:09.685Z,15.80
2018-08-16T01:11:40.228Z,15.80
2018-08-16T01:14:10.473Z,15.70
2018-08-16T01:16:40.400Z,15.70
2018-08-16T01:19:09.899Z,15.70
2018-08-16T01:21:39.734Z,15.80
2018-08-16T01:24:09.692Z,16.00
2018-08-16T01:26:39.203Z,16.20
2018-08-16T01:29:08.852Z,16.30
2018-08-16T01:31:38.449Z,16.30
2018-08-16T01:34:08.079Z,16.20
2018-08-16T01:36:37.692Z,16.20
2018-08-16T01:39:08.888Z,16.00
2018-08-16T01:41:38.943Z,16.00
2018-08-16T01:44:08.641Z,16.00
2018-08-16T01:46:38.338Z,15.90
2018-08-16T01:49:22.428Z,15.90
2018-08-16T01:51:52.363Z,15.90
2018-08-16T01:54:21.878Z,15.90
2018-08-16T01:56:51.978Z,15.90
2018-08-16T01:59:21.935Z,16.00
2018-08-16T02:01:52.173Z,16.00
2018-08-16T02:04:21.478Z,16.10
2018-08-16T02:06:51.721Z,16.10
2018-08-16T02:09:22.864Z,16.10
2018-08-16T02:11:53.553Z,16.20
2018-08-16T02:14:23.630Z,16.30
2018-08-16T02:16:53.181Z,16.30
2018-08-16T02:19:22.763Z,16.30
2018-08-16T02:21:52.301Z,16.30
2018-08-16T02:24:22.014Z,16.30
2018-08-16T02:26:51.608Z,16.30
2018-08-16T02:29:21.039Z,16.30
2018-08-16T02:31:50.568Z,16.30
2018-08-16T02:34:19.796Z,16.20
2018-08-16T02:36:49.544Z,16.20
2018-08-16T02:39:19.008Z,16.20
2018-08-16T02:41:48.444Z,16.30
2018-08-16T02:44:18.231Z,16.50
2018-08-16T02:46:47.746Z,16.50
2018-08-16T02:49:17.524Z,16.50
2018-08-16T02:51:47.301Z,16.40
2018-08-16T02:54:16.849Z,16.40
2018-08-16T02:56:46.449Z,16.30
2018-08-16T02:59:16.079Z,16.40
2018-08-16T03:01:45.723Z,16.50
2018-08-16T03:04:16.204Z,16.60
2018-08-16T03:06:45.591Z,16.60
2018-08-16T03:09:14.667Z,16.60
2018-08-16T03:11:44.233Z,16.60
2018-08-16T03:14:13.905Z,16.70
2018-08-16T03:16:43.661Z,16.60
2018-08-16T03:19:13.389Z,16.60
2018-08-16T03:21:42.942Z,16.70
2018-08-16T03:24:12.995Z,16.80
2018-08-16T03:26:42.765Z,16.60
2018-08-16T03:29:12.210Z,16.50
2018-08-16T03:31:41.996Z,16.40
2018-08-16T03:34:11.434Z,16.40
2018-08-16T03:36:41.083Z,16.30
2018-08-16T03:39:10.623Z,16.30
2018-08-16T03:41:40.785Z,16.30
2018-08-16T03:44:10.482Z,16.30
2018-08-16T03:46:40.221Z,16.30
2018-08-16T03:49:09.821Z,16.20
2018-08-16T03:51:39.158Z,16.20
2018-08-16T03:54:08.893Z,16.20
2018-08-16T03:56:38.336Z,16.40
2018-08-16T03:59:07.530Z,16.70
2018-08-16T04:01:36.872Z,16.90
2018-08-16T04:04:07.188Z,17.00
2018-08-16T04:06:36.512Z,16.80
2018-08-16T04:09:08.234Z,16.70
2018-08-16T04:11:38.261Z,16.60
2018-08-16T04:14:08.190Z,16.60
2018-08-16T04:16:38.179Z,16.50
2018-08-16T04:19:07.900Z,16.50
2018-08-16T04:21:37.300Z,16.60
2018-08-16T04:24:06.800Z,16.60
2018-08-16T04:26:36.441Z,16.50
2018-08-16T04:29:06.274Z,16.50
2018-08-16T04:31:37.224Z,16.60
2018-08-16T04:34:08.135Z,16.70
2018-08-16T04:36:38.123Z,16.90
2018-08-16T04:39:09.290Z,17.10
2018-08-16T04:41:39.557Z,17.10
2018-08-16T04:44:09.528Z,17.00
2018-08-16T04:46:38.902Z,17.00
2018-08-16T04:49:08.498Z,17.10
2018-08-16T04:51:38.192Z,17.00
2018-08-16T04:54:08.767Z,17.00
2018-08-16T04:56:37.945Z,16.90
2018-08-16T04:59:07.582Z,17.00
2018-08-16T05:01:37.264Z,17.00
2018-08-16T05:04:06.807Z,17.00
2018-08-16T05:06:36.412Z,17.00
2018-08-16T05:09:08.520Z,17.00
2018-08-16T05:11:38.387Z,17.00
2018-08-16T05:14:08.209Z,17.10
2018-08-16T05:16:37.768Z,17.20
2018-08-16T05:19:07.289Z,17.20
2018-08-16T05:21:36.744Z,17.20
2018-08-16T05:24:06.123Z,17.20
2018-08-16T05:26:35.850Z,17.30
2018-08-16T05:29:05.581Z,17.40
2018-08-16T05:31:35.236Z,17.50
2018-08-16T05:34:04.927Z,17.40
2018-08-16T05:36:34.287Z,17.50
2018-08-16T05:39:04.132Z,17.50
2018-08-16T05:41:34.371Z,17.50
2018-08-16T05:44:04.112Z,17.50
2018-08-16T05:46:34.040Z,17.60
2018-08-16T05:49:04.262Z,17.80
2018-08-16T05:51:33.780Z,17.90
2018-08-16T05:54:03.569Z,18.10
2018-08-16T05:56:32.912Z,18.10
2018-08-16T05:59:02.603Z,18.20
2018-08-16T06:01:32.103Z,18.20
2018-08-16T06:04:01.732Z,18.20
2018-08-16T06:06:31.353Z,18.20
2018-08-16T06:09:01.088Z,18.20
2018-08-16T06:11:31.172Z,18.20
2018-08-16T06:14:00.453Z,18.20
2018-08-16T06:16:29.842Z,18.20
2018-08-16T06:18:59.388Z,18.20
2018-08-16T06:21:29.444Z,18.20
2018-08-16T06:23:59.291Z,18.30
2018-08-16T06:26:28.799Z,18.40
2018-08-16T06:28:58.177Z,18.60
2018-08-16T06:31:27.543Z,18.80
2018-08-16T06:33:57.763Z,18.80
2018-08-16T06:36:27.266Z,18.90
2018-08-16T06:38:56.976Z,18.80
2018-08-16T06:41:27.020Z,18.80
2018-08-16T06:43:57.278Z,18.80
2018-08-16T06:46:26.815Z,18.70
2018-08-16T06:48:56.515Z,18.80
2018-08-16T06:51:26.123Z,18.80
2018-08-16T06:53:55.783Z,18.90
2018-08-16T06:56:25.444Z,18.90
2018-08-16T06:58:55.001Z,18.90
2018-08-16T07:01:24.996Z,19.00
2018-08-16T07:03:54.952Z,19.10
2018-08-16T07:06:24.921Z,19.30
2018-08-16T07:08:54.777Z,19.30
2018-08-16T07:11:24.381Z,19.40
2018-08-16T07:13:53.913Z,19.30
2018-08-16T07:16:23.493Z,19.40
2018-08-16T07:18:53.242Z,19.40
2018-08-16T07:21:22.723Z,19.50
2018-08-16T07:23:52.430Z,19.60
2018-08-16T07:26:22.063Z,19.60
2018-08-16T07:28:51.432Z,19.60
2018-08-16T07:31:21.135Z,19.70
2018-08-16T07:33:51.111Z,19.80
2018-08-16T07:36:20.586Z,19.90
2018-08-16T07:38:51.100Z,20.00
2018-08-16T07:41:21.680Z,20.10
2018-08-16T07:43:51.934Z,20.20
2018-08-16T07:46:21.848Z,20.20
2018-08-16T07:48:51.403Z,20.30
2018-08-16T07:51:21.043Z,20.40
2018-08-16T07:53:50.335Z,20.40
2018-08-16T07:56:20.041Z,20.40
2018-08-16T07:58:49.524Z,20.50
2018-08-16T08:01:19.063Z,20.60
2018-08-16T08:03:48.340Z,20.50
2018-08-16T08:06:18.078Z,20.60
2018-08-16T08:08:47.636Z,20.60
2018-08-16T08:11:17.792Z,20.70
2018-08-16T08:13:47.522Z,20.80
2018-08-16T08:16:17.010Z,20.90
2018-08-16T08:18:47.005Z,21.10
2018-08-16T08:21:16.665Z,21.20
2018-08-16T08:23:46.218Z,21.10
2018-08-16T08:26:15.722Z,21.10
2018-08-16T08:28:44.922Z,21.20
2018-08-16T08:31:14.260Z,21.40
2018-08-16T08:33:43.729Z,21.50
2018-08-16T08:36:24.199Z,21.60
2018-08-16T08:38:53.687Z,21.70
2018-08-16T08:41:23.272Z,21.90
2018-08-16T08:44:03.400Z,21.80
2018-08-16T08:46:33.209Z,21.90
2018-08-16T08:49:03.280Z,22.10
2018-08-16T08:51:32.659Z,22.30
2018-08-16T08:54:17.629Z,22.30
2018-08-16T08:56:57.910Z,22.20
2018-08-16T08:59:27.593Z,22.30
2018-08-16T09:01:57.002Z,22.50
2018-08-16T09:04:26.750Z,22.60
2018-08-16T09:06:56.044Z,22.50
2018-08-16T09:09:25.594Z,22.50
2018-08-16T09:12:05.584Z,22.20
2018-08-16T09:14:45.964Z,22.30
2018-08-16T09:17:15.911Z,22.40
2018-08-16T09:19:45.342Z,22.50
2018-08-16T09:22:16.113Z,22.70
2018-08-16T09:24:46.023Z,22.70
2018-08-16T09:27:30.050Z,22.80
2018-08-16T09:30:20.061Z,22.90
2018-08-16T09:33:01.524Z,22.80
2018-08-16T09:35:31.294Z,22.90
2018-08-16T09:38:00.700Z,22.80
2018-08-16T09:40:30.219Z,22.90
2018-08-16T09:42:59.629Z,23.00
2018-08-16T09:45:44.900Z,23.20
2018-08-16T09:48:42.231Z,23.20
2018-08-16T09:51:22.393Z,23.30
2018-08-16T09:54:01.591Z,23.40
2018-08-16T09:56:31.009Z,23.40
2018-08-16T09:59:00.557Z,23.50
2018-08-16T10:01:32.724Z,23.50
2018-08-16T10:04:02.171Z,23.70
2018-08-16T10:06:32.651Z,23.40
2018-08-16T10:09:08.378Z,23.00
2018-08-16T10:11:37.621Z,22.80
2018-08-16T10:14:07.473Z,22.80
2018-08-16T10:16:37.266Z,23.20
2018-08-16T10:19:06.680Z,23.30
2018-08-16T10:21:36.000Z,22.90
2018-08-16T10:24:05.578Z,23.20
2018-08-16T10:26:35.279Z,23.00
2018-08-16T10:29:05.104Z,23.30
2018-08-16T10:31:34.890Z,23.40
2018-08-16T10:34:04.801Z,23.20
2018-08-16T10:36:35.346Z,23.50
2018-08-16T10:39:07.504Z,23.70
2018-08-16T10:41:37.812Z,24.00
2018-08-16T10:44:07.340Z,24.20
2018-08-16T10:46:36.911Z,24.10
2018-08-16T10:49:07.098Z,24.20
2018-08-16T10:51:37.184Z,24.10
2018-08-16T10:54:07.199Z,24.30
2018-08-16T10:56:36.605Z,24.40
2018-08-16T10:59:06.521Z,24.40
2018-08-16T11:01:36.298Z,24.60
2018-08-16T11:04:06.561Z,24.30
2018-08-16T11:06:36.223Z,24.00
2018-08-16T11:09:08.486Z,24.40
2018-08-16T11:11:38.581Z,24.30
2018-08-16T11:14:08.799Z,24.50
2018-08-16T11:16:38.582Z,24.50
2018-08-16T11:19:08.689Z,24.60
2018-08-16T11:21:38.152Z,24.60
2018-08-16T11:24:07.560Z,24.70
2018-08-16T11:26:37.088Z,24.70
2018-08-16T11:29:06.560Z,24.40
2018-08-16T11:31:36.199Z,24.60
2018-08-16T11:34:05.792Z,24.70
2018-08-16T11:36:35.372Z,24.60
2018-08-16T11:39:07.088Z,24.30
2018-08-16T11:41:36.280Z,24.60
2018-08-16T11:44:06.235Z,24.60
2018-08-16T11:46:36.407Z,24.70
2018-08-16T11:49:06.091Z,24.60
2018-08-16T11:51:35.544Z,24.80
2018-08-16T11:54:04.990Z,24.80
2018-08-16T11:56:34.351Z,25.10
2018-08-16T11:59:04.020Z,25.00
2018-08-16T12:01:34.038Z,25.00
2018-08-16T12:04:03.960Z,24.70
2018-08-16T12:06:33.341Z,25.20
2018-08-16T12:09:03.136Z,24.60
2018-08-16T12:11:32.942Z,24.40
2018-08-16T12:14:02.671Z,24.70
2018-08-16T12:16:32.412Z,24.90
2018-08-16T12:19:01.959Z,24.90
2018-08-16T12:21:31.479Z,24.90
2018-08-16T12:24:01.131Z,24.90
2018-08-16T12:26:30.609Z,24.90
2018-08-16T12:29:00.719Z,24.70
2018-08-16T12:31:30.270Z,24.40
2018-08-16T12:34:00.170Z,24.40
2018-08-16T12:36:29.970Z,24.10
2018-08-16T12:38:59.625Z,24.50
2018-08-16T12:41:29.911Z,24.60
2018-08-16T12:43:59.713Z,24.40
2018-08-16T12:46:30.113Z,24.10
2018-08-16T12:48:59.451Z,24.10
2018-08-16T12:51:28.729Z,24.20
2018-08-16T12:53:58.665Z,24.30
2018-08-16T12:56:29.130Z,24.40
2018-08-16T12:58:58.464Z,24.10
2018-08-16T13:01:27.880Z,24.10
2018-08-16T13:03:58.071Z,24.10
2018-08-16T13:06:28.361Z,23.60
2018-08-16T13:08:58.013Z,23.80
2018-08-16T13:11:27.929Z,23.90
2018-08-16T13:13:58.112Z,24.00
2018-08-16T13:16:27.512Z,23.60
2018-08-16T13:18:57.080Z,23.80
2018-08-16T13:21:27.157Z,23.80
2018-08-16T13:23:56.688Z,23.80
2018-08-16T13:26:26.289Z,23.60
2018-08-16T13:28:55.541Z,23.60
2018-08-16T13:31:25.391Z,23.50
2018-08-16T13:33:54.912Z,23.60
2018-08-16T13:36:24.298Z,23.80
2018-08-16T13:38:54.077Z,23.80
2018-08-16T13:41:23.662Z,23.70
2018-08-16T13:43:53.259Z,23.50
2018-08-16T13:46:22.954Z,23.50
2018-08-16T13:48:52.483Z,23.80
2018-08-16T13:51:22.205Z,23.70
2018-08-16T13:53:51.624Z,23.20
2018-08-16T13:56:22.377Z,23.40
2018-08-16T13:58:51.923Z,23.30
2018-08-16T14:01:22.280Z,23.30
2018-08-16T14:03:51.791Z,23.30
2018-08-16T14:06:21.976Z,23.40
2018-08-16T14:08:51.410Z,23.40
2018-08-16T14:11:21.023Z,23.50
2018-08-16T14:13:50.439Z,23.40
2018-08-16T14:16:19.859Z,23.40
2018-08-16T14:18:49.494Z,23.10
2018-08-16T14:21:19.168Z,23.20
2018-08-16T14:23:48.321Z,23.30
2018-08-16T14:26:18.064Z,23.50
2018-08-16T14:28:47.894Z,23.40
2018-08-16T14:31:17.462Z,23.40
2018-08-16T14:33:46.808Z,23.50
2018-08-16T14:36:16.585Z,23.20
2018-08-16T14:38:46.297Z,23.30
2018-08-16T14:41:15.368Z,23.20
2018-08-16T14:43:44.839Z,23.40
2018-08-16T14:46:14.623Z,23.20
2018-08-16T14:48:44.350Z,23.20
2018-08-16T14:51:14.755Z,23.20
2018-08-16T14:53:44.112Z,23.20
2018-08-16T14:56:13.958Z,23.20
2018-08-16T14:58:43.463Z,23.20
2018-08-16T15:01:13.319Z,23.00
2018-08-16T15:03:42.980Z,23.10
2018-08-16T15:06:12.559Z,22.80
2018-08-16T15:08:42.391Z,22.80
2018-08-16T15:11:12.058Z,22.90
2018-08-16T15:13:41.593Z,22.70
2018-08-16T15:16:11.471Z,22.60
2018-08-16T15:18:40.560Z,22.40
2018-08-16T15:21:09.909Z,22.50
2018-08-16T15:23:39.552Z,22.60
2018-08-16T15:26:09.029Z,22.60
2018-08-16T15:28:38.589Z,22.60
2018-08-16T15:31:08.397Z,23.00
2018-08-16T15:33:37.868Z,23.20
2018-08-16T15:36:08.796Z,22.90
2018-08-16T15:38:38.211Z,22.60
2018-08-16T15:41:08.867Z,22.30
2018-08-16T15:43:39.137Z,22.40
2018-08-16T15:46:08.727Z,22.30
2018-08-16T15:48:38.449Z,22.00
2018-08-16T15:51:08.511Z,22.10
2018-08-16T15:53:38.765Z,22.00
2018-08-16T15:56:08.479Z,22.10
2018-08-16T15:58:37.892Z,22.20
2018-08-16T16:01:07.253Z,22.10
2018-08-16T16:03:36.869Z,22.00
2018-08-16T16:06:06.731Z,22.10
2018-08-16T16:08:36.415Z,22.00
2018-08-16T16:11:05.839Z,21.90
2018-08-16T16:13:35.878Z,21.80
2018-08-16T16:16:05.039Z,21.80
2018-08-16T16:18:34.840Z,21.70
2018-08-16T16:21:04.605Z,21.80
2018-08-16T16:23:34.136Z,21.70
2018-08-16T16:26:03.707Z,21.60
2018-08-16T16:28:33.276Z,21.50
2018-08-16T16:31:02.548Z,21.60
2018-08-16T16:33:32.082Z,21.60
2018-08-16T16:36:01.859Z,21.50
2018-08-16T16:38:31.679Z,21.70
2018-08-16T16:41:01.242Z,21.40
2018-08-16T16:43:31.302Z,21.40
2018-08-16T16:46:01.082Z,21.20
2018-08-16T16:48:30.515Z,21.30
2018-08-16T16:51:00.096Z,21.20
2018-08-16T16:53:29.630Z,21.10
2018-08-16T16:55:59.291Z,21.10
2018-08-16T16:58:28.701Z,21.10
2018-08-16T17:00:58.515Z,21.10
2018-08-16T17:03:28.054Z,21.10
2018-08-16T17:05:57.540Z,21.00
2018-08-16T17:08:26.964Z,21.10
2018-08-16T17:10:56.877Z,21.10
2018-08-16T17:13:26.311Z,21.00
2018-08-16T17:15:55.802Z,20.90
2018-08-16T17:18:25.443Z,20.90
2018-08-16T17:20:54.934Z,21.10
2018-08-16T17:23:24.901Z,20.90
2018-08-16T17:25:54.582Z,21.00
2018-08-16T17:28:24.174Z,20.80
2018-08-16T17:30:54.563Z,20.70
2018-08-16T17:33:24.235Z,20.60
2018-08-16T17:35:53.699Z,20.50
2018-08-16T17:38:23.122Z,20.60
2018-08-16T17:40:52.736Z,20.60
2018-08-16T17:43:22.303Z,20.60
2018-08-16T17:45:51.684Z,20.60
2018-08-16T17:48:21.376Z,20.70
2018-08-16T17:50:50.992Z,20.50
2018-08-16T17:53:20.539Z,20.40
2018-08-16T17:55:50.217Z,20.30
2018-08-16T17:58:20.108Z,20.50
2018-08-16T18:00:49.825Z,20.50
2018-08-16T18:03:19.639Z,20.50
2018-08-16T18:05:49.787Z,20.40
2018-08-16T18:08:20.442Z,20.30
2018-08-16T18:10:49.661Z,20.30
2018-08-16T18:13:19.310Z,20.30
2018-08-16T18:15:48.854Z,20.20
2018-08-16T18:18:18.350Z,20.30
2018-08-16T18:20:48.075Z,20.40
2018-08-16T18:23:17.350Z,20.40
2018-08-16T18:25:47.271Z,20.40
2018-08-16T18:28:17.646Z,20.40
2018-08-16T18:30:46.812Z,20.40
2018-08-16T18:33:16.264Z,20.40
2018-08-16T18:35:45.867Z,20.30
2018-08-16T18:38:15.543Z,20.30
2018-08-16T18:40:45.099Z,20.20
2018-08-16T18:43:14.641Z,20.10
2018-08-16T18:45:44.374Z,20.00
2018-08-16T18:48:14.838Z,20.10
2018-08-16T18:50:45.644Z,20.20
2018-08-16T18:53:15.313Z,20.10
2018-08-16T18:55:44.947Z,20.10
2018-08-16T18:58:14.672Z,20.20
2018-08-16T19:00:44.570Z,20.30
2018-08-16T19:03:14.890Z,20.30
2018-08-16T19:05:44.745Z,20.20
2018-08-16T19:08:14.024Z,20.00
2018-08-16T19:10:43.925Z,20.00
2018-08-16T19:13:13.781Z,20.10
2018-08-16T19:15:43.345Z,20.10
2018-08-16T19:18:13.559Z,20.00
2018-08-16T19:20:43.089Z,20.00
2018-08-16T19:23:12.598Z,20.00
2018-08-16T19:25:41.932Z,20.00
2018-08-16T19:28:11.584Z,20.00
2018-08-16T19:30:41.271Z,20.10
2018-08-16T19:33:10.512Z,20.10
2018-08-16T19:35:40.502Z,20.10
2018-08-16T19:38:09.910Z,19.90
2018-08-16T19:40:39.109Z,20.00
2018-08-16T19:43:08.839Z,19.90
2018-08-16T19:45:38.137Z,20.00
2018-08-16T19:48:07.794Z,19.90
2018-08-16T19:50:37.314Z,19.90
2018-08-16T19:53:06.839Z,19.90
2018-08-16T19:55:36.511Z,19.90
2018-08-16T19:58:06.237Z,20.00
2018-08-16T20:00:35.974Z,19.90
2018-08-16T20:03:05.761Z,19.90
2018-08-16T20:05:35.284Z,19.80
2018-08-16T20:08:05.900Z,19.80
2018-08-16T20:10:35.507Z,19.80
2018-08-16T20:13:06.173Z,19.90
2018-08-16T20:15:35.808Z,19.90
2018-08-16T20:18:05.380Z,19.90
2018-08-16T20:20:34.667Z,19.80
2018-08-16T20:23:03.960Z,19.70
2018-08-16T20:25:33.683Z,19.70
2018-08-16T20:28:03.019Z,19.60
2018-08-16T20:30:32.894Z,19.60
2018-08-16T20:33:02.836Z,19.60
2018-08-16T20:35:32.136Z,19.60
2018-08-16T20:38:01.830Z,19.70
2018-08-16T20:40:31.825Z,19.80
2018-08-16T20:43:01.409Z,19.80
2018-08-16T20:45:31.157Z,19.80
2018-08-16T20:48:00.436Z,19.90
2018-08-16T20:50:30.540Z,19.80
2018-08-16T20:52:59.892Z,19.80
2018-08-16T20:55:29.671Z,19.80
2018-08-16T20:57:59.143Z,19.80
2018-08-16T21:00:28.560Z,19.80
2018-08-16T21:02:58.285Z,19.80
2018-08-16T21:05:27.747Z,19.80
2018-08-16T21:07:57.168Z,19.70
2018-08-16T21:10:26.760Z,19.70
2018-08-16T21:12:56.025Z,19.70
2018-08-16T21:15:25.528Z,19.80
2018-08-16T21:17:54.938Z,19.80
2018-08-16T21:20:24.247Z,19.70
2018-08-16T21:22:53.783Z,19.70
2018-08-16T21:25:23.459Z,19.70
2018-08-16T21:27:53.175Z,19.70
2018-08-16T21:30:22.356Z,19.70
2018-08-16T21:32:52.219Z,19.70
2018-08-16T21:35:22.073Z,19.70
2018-08-16T21:37:52.339Z,19.80
2018-08-16T21:40:21.932Z,19.70
2018-08-16T21:42:51.566Z,19.70
2018-08-16T21:45:20.819Z,19.70
2018-08-16T21:47:50.333Z,19.70
2018-08-16T21:50:19.627Z,19.80
2018-08-16T21:52:48.748Z,19.90
2018-08-16T21:55:18.309Z,19.80
2018-08-16T21:57:47.742Z,19.70
2018-08-16T22:00:50.348Z,19.70
2018-08-16T22:03:22.718Z,19.70
2018-08-16T22:06:01.937Z,19.60
2018-08-16T22:08:50.385Z,19.70
2018-08-16T22:11:21.015Z,19.70
2018-08-16T22:13:50.308Z,19.80
2018-08-16T22:16:19.960Z,19.80
2018-08-16T22:18:49.718Z,19.80
2018-08-16T22:21:19.307Z,19.70
2018-08-16T22:23:48.987Z,19.80
2018-08-16T22:26:18.303Z,19.80
2018-08-16T22:28:48.057Z,19.80
2018-08-16T22:31:17.533Z,19.80
2018-08-16T22:33:47.195Z,19.70
2018-08-16T22:36:16.677Z,19.80
2018-08-16T22:38:46.125Z,19.70
2018-08-16T22:41:15.632Z,19.70
2018-08-16T22:43:44.918Z,19.70
2018-08-16T22:46:14.946Z,19.70
2018-08-16T22:48:46.391Z,19.70
2018-08-16T22:51:16.202Z,19.60
2018-08-16T22:53:46.368Z,19.70
2018-08-16T22:56:15.882Z,19.60
2018-08-16T22:58:45.988Z,19.60
2018-08-16T23:01:15.694Z,19.70
2018-08-16T23:03:45.236Z,19.80
2018-08-16T23:06:14.815Z,19.80
2018-08-16T23:08:44.478Z,19.70
2018-08-16T23:11:14.055Z,19.80
2018-08-16T23:13:43.570Z,19.80
2018-08-16T23:16:13.081Z,19.70
2018-08-16T23:18:42.406Z,19.60
2018-08-16T23:21:11.937Z,19.60
2018-08-16T23:23:41.576Z,19.60
2018-08-16T23:26:10.930Z,19.60
2018-08-16T23:28:40.454Z,19.60
2018-08-16T23:31:10.357Z,19.60
2018-08-16T23:33:39.816Z,19.60
2018-08-16T23:36:09.631Z,19.70
2018-08-16T23:38:39.269Z,19.60
2018-08-16T23:41:08.936Z,19.70
2018-08-16T23:43:38.625Z,19.70
2018-08-16T23:46:08.302Z,19.60
2018-08-16T23:48:37.989Z,19.60
2018-08-16T23:51:07.466Z,19.70
2018-08-16T23:53:36.834Z,19.70
2018-08-16T23:56:06.518Z,19.60
2018-08-16T23:58:35.747Z,19.60
